createdAt,value
2022-07-29T00:00:06.510Z,41.62
2022-07-29T00:02:34.725Z,41.76
2022-07-29T00:05:02.858Z,41.48
2022-07-29T00:07:29.613Z,41.19
2022-07-29T00:09:57.147Z,41.25
2022-07-29T00:12:26.686Z,41.05
2022-07-29T00:14:55.863Z,41.62
2022-07-29T00:17:24.614Z,41.31
2022-07-29T00:19:51.558Z,41.61
2022-07-29T00:22:18.653Z,40.95
2022-07-29T00:24:45.625Z,41.26
2022-07-29T00:27:12.311Z,41.23
2022-07-29T00:29:39.241Z,41.46
2022-07-29T00:32:07.573Z,40.58
2022-07-29T00:34:52.974Z,41.46
2022-07-29T00:37:21.891Z,41.42
2022-07-29T00:39:49.417Z,41.97
2022-07-29T00:42:19.132Z,42.09
2022-07-29T00:44:45.828Z,41.63
2022-07-29T00:47:13.484Z,41.06
2022-07-29T00:49:42.400Z,41.87
2022-07-29T00:52:11.475Z,41.07
2022-07-29T00:54:44.256Z,41.65
2022-07-29T00:57:13.704Z,41.93
2022-07-29T00:59:40.909Z,41.63
2022-07-29T01:02:07.803Z,41.91
2022-07-29T01:04:35.001Z,42.47
2022-07-29T01:07:06.340Z,41.89
2022-07-29T01:09:46.113Z,42.24
2022-07-29T01:12:22.431Z,42.95
2022-07-29T01:14:53.072Z,41.76
2022-07-29T01:17:41.400Z,42.54
2022-07-29T01:21:02.169Z,43.25
2022-07-29T01:23:57.988Z,41.80
2022-07-29T01:26:42.031Z,42.65
2022-07-29T01:29:16.403Z,43.65
2022-07-29T01:32:06.108Z,41.83
2022-07-29T01:34:44.822Z,44.29
2022-07-29T01:37:47.170Z,42.81
2022-07-29T01:40:45.995Z,43.17
2022-07-29T01:43:19.724Z,43.39
2022-07-29T01:45:58.711Z,43.06
2022-07-29T01:48:40.197Z,42.64
2022-07-29T01:51:29.153Z,43.20
2022-07-29T01:54:21.021Z,42.80
2022-07-29T01:56:52.309Z,43.84
2022-07-29T01:59:20.906Z,43.00
2022-07-29T02:01:54.397Z,42.95
2022-07-29T02:04:33.560Z,42.77
2022-07-29T02:07:07.255Z,43.90
2022-07-29T02:09:37.618Z,42.12
2022-07-29T02:12:08.311Z,42.03
2022-07-29T02:14:40.585Z,43.18
2022-07-29T02:17:08.957Z,44.02
2022-07-29T02:19:40.509Z,43.18
2022-07-29T02:22:08.501Z,43.36
2022-07-29T02:24:38.624Z,43.23
2022-07-29T02:27:05.444Z,43.17
2022-07-29T02:29:34.273Z,42.87
2022-07-29T02:32:05.731Z,43.20
2022-07-29T02:34:35.197Z,42.72
2022-07-29T02:37:04.501Z,42.85
2022-07-29T02:39:32.631Z,43.43
2022-07-29T02:42:06.687Z,44.46
2022-07-29T02:44:36.024Z,42.94
2022-07-29T02:47:41.353Z,43.08
2022-07-29T02:50:38.240Z,44.65
2022-07-29T02:53:19.920Z,45.21
2022-07-29T02:56:00.117Z,44.26
2022-07-29T02:58:40.445Z,44.04
2022-07-29T03:01:22.686Z,43.93
2022-07-29T03:03:53.989Z,43.88
2022-07-29T03:06:37.646Z,43.69
2022-07-29T03:09:12.912Z,44.47
2022-07-29T03:11:49.618Z,44.18
2022-07-29T03:14:20.511Z,45.29
2022-07-29T03:16:49.126Z,44.53
2022-07-29T03:19:17.206Z,45.15
2022-07-29T03:21:44.269Z,45.02
2022-07-29T03:24:11.470Z,45.96
2022-07-29T03:26:38.626Z,45.39
2022-07-29T03:29:05.518Z,45.60
2022-07-29T03:31:33.506Z,46.24
2022-07-29T03:34:00.531Z,45.21
2022-07-29T03:36:27.548Z,47.37
2022-07-29T03:38:55.501Z,46.96
2022-07-29T03:41:24.914Z,46.21
2022-07-29T03:43:55.187Z,46.40
2022-07-29T03:46:27.474Z,46.82
2022-07-29T03:49:01.250Z,47.46
2022-07-29T03:51:33.906Z,46.96
2022-07-29T03:54:09.661Z,46.60
2022-07-29T03:56:48.377Z,47.04
2022-07-29T03:59:18.676Z,47.95
2022-07-29T04:01:47.185Z,47.65
2022-07-29T04:04:14.492Z,46.84
2022-07-29T04:06:44.123Z,47.67
2022-07-29T04:09:11.777Z,48.30
2022-07-29T04:12:01.736Z,48.84
2022-07-29T04:14:29.763Z,48.53
2022-07-29T04:16:56.711Z,49.33
2022-07-29T04:19:23.638Z,49.67
2022-07-29T04:21:50.640Z,48.66
2022-07-29T04:24:17.858Z,48.15
2022-07-29T04:26:46.903Z,48.46
2022-07-29T04:29:15.173Z,49.10
2022-07-29T04:31:43.528Z,50.22
2022-07-29T04:34:11.951Z,50.20
2022-07-29T04:36:38.862Z,50.33
2022-07-29T04:39:06.032Z,49.47
2022-07-29T04:41:33.698Z,48.76
2022-07-29T04:44:07.181Z,49.87
2022-07-29T04:46:35.263Z,48.84
2022-07-29T04:49:04.341Z,49.41
2022-07-29T04:51:31.800Z,49.70
2022-07-29T04:53:59.692Z,50.41
2022-07-29T04:56:26.687Z,51.42
2022-07-29T04:58:53.721Z,51.58
2022-07-29T05:01:20.999Z,53.14
2022-07-29T05:03:47.790Z,52.59
2022-07-29T05:06:14.539Z,52.97
2022-07-29T05:08:41.967Z,53.17
2022-07-29T05:11:12.538Z,53.83
2022-07-29T05:13:45.957Z,53.96
2022-07-29T05:16:14.351Z,53.72
2022-07-29T05:18:42.093Z,54.15
2022-07-29T05:21:08.782Z,54.00
2022-07-29T05:23:35.625Z,53.86
2022-07-29T05:26:02.639Z,53.74
2022-07-29T05:28:29.531Z,53.23
2022-07-29T05:30:57.230Z,54.11
2022-07-29T05:33:35.109Z,54.11
2022-07-29T05:36:08.536Z,54.57
2022-07-29T05:38:36.958Z,54.91
2022-07-29T05:41:05.119Z,54.96
2022-07-29T05:43:32.827Z,55.01
2022-07-29T05:45:59.857Z,53.90
2022-07-29T05:48:26.898Z,52.37
2022-07-29T05:50:54.156Z,53.24
2022-07-29T05:53:21.264Z,52.78
2022-07-29T05:55:50.185Z,53.15
2022-07-29T05:58:17.625Z,51.88
2022-07-29T06:00:44.642Z,53.63
2022-07-29T06:03:11.574Z,55.45
2022-07-29T06:05:38.545Z,53.16
2022-07-29T06:08:09.159Z,55.29
2022-07-29T06:10:37.128Z,52.57
2022-07-29T06:13:04.376Z,52.42
2022-07-29T06:15:31.385Z,54.14
2022-07-29T06:17:59.257Z,51.22
2022-07-29T06:20:32.713Z,51.41
2022-07-29T06:23:00.618Z,53.18
2022-07-29T06:25:30.209Z,52.48
2022-07-29T06:27:58.180Z,50.52
2022-07-29T06:30:25.005Z,51.20
2022-07-29T06:32:51.930Z,49.73
2022-07-29T06:35:38.501Z,48.75
2022-07-29T06:38:07.305Z,49.19
2022-07-29T06:41:01.625Z,46.96
2022-07-29T06:43:32.416Z,48.66
2022-07-29T06:46:06.135Z,46.97
2022-07-29T06:48:34.883Z,47.61
2022-07-29T06:51:01.706Z,46.74
2022-07-29T06:53:30.577Z,46.15
2022-07-29T06:55:59.192Z,44.76
2022-07-29T06:58:28.130Z,45.22
2022-07-29T07:00:56.806Z,47.43
2022-07-29T07:03:24.120Z,45.20
2022-07-29T07:05:52.602Z,44.61
2022-07-29T07:08:20.559Z,46.56
2022-07-29T07:10:47.743Z,46.17
2022-07-29T07:13:18.280Z,46.35
2022-07-29T07:15:49.329Z,46.92
2022-07-29T07:18:17.698Z,43.61
2022-07-29T07:20:44.393Z,44.50
2022-07-29T07:23:12.060Z,46.16
2022-07-29T07:25:38.805Z,47.28
2022-07-29T07:28:05.612Z,44.42
2022-07-29T07:30:32.588Z,44.47
2022-07-29T07:33:00.347Z,43.88
2022-07-29T07:35:28.670Z,45.69
2022-07-29T07:37:57.811Z,44.15
2022-07-29T07:40:26.470Z,41.88
2022-07-29T07:42:53.237Z,42.40
2022-07-29T07:45:20.017Z,43.15
2022-07-29T07:47:47.715Z,46.38
2022-07-29T07:50:18.691Z,42.47
2022-07-29T07:52:58.656Z,44.51
2022-07-29T07:55:27.029Z,43.32
2022-07-29T07:57:55.019Z,43.23
2022-07-29T08:00:23.365Z,44.53
2022-07-29T08:02:51.519Z,44.00
2022-07-29T08:05:19.402Z,45.36
2022-07-29T08:07:48.071Z,43.49
2022-07-29T08:10:36.582Z,44.12
2022-07-29T08:13:12.916Z,44.28
2022-07-29T08:15:42.480Z,44.24
2022-07-29T08:18:09.550Z,44.88
2022-07-29T08:20:39.284Z,44.11
2022-07-29T08:23:09.611Z,45.08
2022-07-29T08:25:40.226Z,42.83
2022-07-29T08:28:07.393Z,44.14
2022-07-29T08:30:34.670Z,45.32
2022-07-29T08:33:02.068Z,42.17
2022-07-29T08:35:34.813Z,42.16
2022-07-29T08:38:04.285Z,39.37
2022-07-29T08:40:32.670Z,39.24
2022-07-29T08:43:06.760Z,41.34
2022-07-29T08:45:49.942Z,38.81
2022-07-29T08:48:23.764Z,42.23
2022-07-29T08:50:56.991Z,41.84
2022-07-29T08:53:28.259Z,41.29
2022-07-29T08:55:57.018Z,43.81
2022-07-29T08:58:25.893Z,40.95
2022-07-29T09:00:56.101Z,40.33
2022-07-29T09:03:32.488Z,40.93
2022-07-29T09:06:00.358Z,45.56
2022-07-29T09:08:28.032Z,45.55
2022-07-29T09:10:57.243Z,46.53
2022-07-29T09:13:24.279Z,43.33
2022-07-29T09:15:51.045Z,44.46
2022-07-29T09:18:46.939Z,39.17
2022-07-29T09:21:36.190Z,41.89
2022-07-29T09:24:15.149Z,35.94
2022-07-29T09:26:46.450Z,39.82
2022-07-29T09:29:19.551Z,37.21
2022-07-29T09:31:50.614Z,39.49
2022-07-29T09:34:32.111Z,39.04
2022-07-29T09:36:59.110Z,37.55
2022-07-29T09:39:36.321Z,41.50
2022-07-29T09:42:06.982Z,39.92
2022-07-29T09:44:49.494Z,40.86
2022-07-29T09:47:19.020Z,40.22
2022-07-29T09:50:01.112Z,40.32
2022-07-29T09:52:30.287Z,39.52
2022-07-29T09:55:09.325Z,42.94
2022-07-29T09:57:36.167Z,41.42
2022-07-29T10:00:07.024Z,42.11
2022-07-29T10:02:36.743Z,41.67
2022-07-29T10:05:07.498Z,41.83
2022-07-29T10:07:57.761Z,41.88
2022-07-29T10:10:34.686Z,43.78
2022-07-29T10:13:12.091Z,40.28
2022-07-29T10:15:45.264Z,40.93
2022-07-29T10:18:14.992Z,38.52
2022-07-29T10:20:42.412Z,41.70
2022-07-29T10:23:10.719Z,42.20
2022-07-29T10:25:37.904Z,42.50
2022-07-29T10:28:07.606Z,43.14
2022-07-29T10:30:35.260Z,44.04
2022-07-29T10:33:45.718Z,45.79
2022-07-29T10:37:04.972Z,39.08
2022-07-29T10:39:49.798Z,43.02
2022-07-29T10:42:34.057Z,40.11
2022-07-29T10:45:04.893Z,40.66
2022-07-29T10:47:32.649Z,40.33
2022-07-29T10:50:05.169Z,36.01
2022-07-29T10:52:50.498Z,41.07
2022-07-29T10:55:45.412Z,37.82
2022-07-29T10:58:20.095Z,39.29
2022-07-29T11:00:51.715Z,38.70
2022-07-29T11:03:49.211Z,37.04
2022-07-29T11:06:26.150Z,39.55
2022-07-29T11:09:20.333Z,38.14
2022-07-29T11:11:53.253Z,37.67
2022-07-29T11:15:09.716Z,39.68
2022-07-29T11:18:01.668Z,37.65
2022-07-29T11:20:51.239Z,41.47
2022-07-29T11:23:33.844Z,40.42
2022-07-29T11:26:10.849Z,39.33
2022-07-29T11:29:23.235Z,39.17
2022-07-29T11:31:56.663Z,41.78
2022-07-29T11:34:34.858Z,42.25
2022-07-29T11:37:08.107Z,41.48
2022-07-29T11:39:37.839Z,44.44
2022-07-29T11:42:28.508Z,42.39
2022-07-29T11:45:42.876Z,42.10
2022-07-29T11:48:28.383Z,42.73
2022-07-29T11:50:49.554Z,43.34
2022-07-29T11:53:17.087Z,40.35
2022-07-29T11:55:51.527Z,41.08
2022-07-29T11:58:25.073Z,45.03
2022-07-29T12:00:55.742Z,40.90
2022-07-29T12:03:33.581Z,39.34
2022-07-29T12:06:18.283Z,39.19
2022-07-29T12:08:47.519Z,38.48
2022-07-29T12:11:21.649Z,41.25
2022-07-29T12:13:53.149Z,38.21
2022-07-29T12:16:29.446Z,36.89
2022-07-29T12:19:02.064Z,36.70
2022-07-29T12:21:31.066Z,36.30
2022-07-29T12:24:05.758Z,36.35
2022-07-29T12:26:36.849Z,37.25
2022-07-29T12:29:04.271Z,34.94
2022-07-29T12:31:44.121Z,37.11
2022-07-29T12:34:30.342Z,35.56
2022-07-29T12:36:57.395Z,36.14
2022-07-29T12:39:27.360Z,37.12
2022-07-29T12:42:04.741Z,36.52
2022-07-29T12:44:52.240Z,36.58
2022-07-29T12:47:21.222Z,35.23
2022-07-29T12:49:50.096Z,37.41
2022-07-29T12:52:31.872Z,37.20
2022-07-29T12:54:59.151Z,37.29
2022-07-29T12:57:26.865Z,38.03
2022-07-29T13:00:11.579Z,34.82
2022-07-29T13:02:40.274Z,34.43
2022-07-29T13:05:09.277Z,35.78
2022-07-29T13:07:54.404Z,33.74
2022-07-29T13:10:26.052Z,33.49
2022-07-29T13:13:06.836Z,32.77
2022-07-29T13:15:34.949Z,36.35
2022-07-29T13:18:02.114Z,37.99
2022-07-29T13:20:30.797Z,34.50
2022-07-29T13:23:00.893Z,29.60
2022-07-29T13:25:33.143Z,29.55
2022-07-29T13:28:00.807Z,31.83
2022-07-29T13:30:28.008Z,29.99
2022-07-29T13:32:56.176Z,32.63
2022-07-29T13:35:23.240Z,33.20
2022-07-29T13:37:50.001Z,31.66
2022-07-29T13:40:18.888Z,32.96
2022-07-29T13:42:45.710Z,36.33
2022-07-29T13:45:13.864Z,32.46
2022-07-29T13:47:43.600Z,33.41
2022-07-29T13:50:14.379Z,35.00
2022-07-29T13:52:41.105Z,35.96
2022-07-29T13:55:09.111Z,33.76
2022-07-29T13:57:37.147Z,35.96
2022-07-29T14:00:04.660Z,38.59
2022-07-29T14:02:31.371Z,38.01
2022-07-29T14:04:58.148Z,39.50
2022-07-29T14:07:25.011Z,39.66
2022-07-29T14:09:52.149Z,40.57
2022-07-29T14:12:20.040Z,42.06
2022-07-29T14:14:47.298Z,41.86
2022-07-29T14:17:15.093Z,41.30
2022-07-29T14:19:42.672Z,41.91
2022-07-29T14:22:11.022Z,41.88
2022-07-29T14:24:39.091Z,45.59
2022-07-29T14:27:08.948Z,48.70
2022-07-29T14:29:38.224Z,54.50
2022-07-29T14:32:08.106Z,58.17
2022-07-29T14:34:36.715Z,60.71
2022-07-29T14:37:06.437Z,64.40
2022-07-29T14:39:38.147Z,66.36
2022-07-29T14:42:09.551Z,67.77
2022-07-29T14:44:39.030Z,66.53
2022-07-29T14:47:07.839Z,68.32
2022-07-29T14:49:35.991Z,70.07
2022-07-29T14:52:03.612Z,71.57
2022-07-29T14:54:30.632Z,70.71
2022-07-29T14:56:58.910Z,72.46
2022-07-29T14:59:27.218Z,75.04
2022-07-29T15:01:54.261Z,76.87
2022-07-29T15:04:21.302Z,77.71
2022-07-29T15:06:48.758Z,77.80
2022-07-29T15:09:15.572Z,79.82
2022-07-29T15:11:43.092Z,80.53
2022-07-29T15:14:11.064Z,80.53
2022-07-29T15:16:41.997Z,81.29
2022-07-29T15:19:12.301Z,81.19
2022-07-29T15:21:41.604Z,80.21
2022-07-29T15:24:19.953Z,80.59
2022-07-29T15:26:48.659Z,80.34
2022-07-29T15:29:16.888Z,80.96
2022-07-29T15:31:44.285Z,80.88
2022-07-29T15:34:11.004Z,80.71
2022-07-29T15:36:53.768Z,81.66
2022-07-29T15:39:23.336Z,82.50
2022-07-29T15:41:51.772Z,81.29
2022-07-29T15:44:19.782Z,79.97
2022-07-29T15:47:04.405Z,81.73
2022-07-29T15:49:48.594Z,82.82
2022-07-29T15:52:25.886Z,83.12
2022-07-29T15:54:56.708Z,84.45
2022-07-29T15:57:24.498Z,85.63
2022-07-29T15:59:52.284Z,85.25
2022-07-29T16:02:19.069Z,84.62
2022-07-29T16:04:46.568Z,85.49
2022-07-29T16:07:14.295Z,84.87
2022-07-29T16:09:42.149Z,84.37
2022-07-29T16:12:14.593Z,85.85
2022-07-29T16:14:43.979Z,84.73
2022-07-29T16:17:14.824Z,84.26
2022-07-29T16:19:43.407Z,85.22
2022-07-29T16:22:12.530Z,84.71
2022-07-29T16:24:40.293Z,84.99
2022-07-29T16:27:09.901Z,85.30
2022-07-29T16:29:37.357Z,83.74
2022-07-29T16:32:06.843Z,85.31
2022-07-29T16:34:36.874Z,84.90
2022-07-29T16:37:07.023Z,84.72
2022-07-29T16:39:33.832Z,85.33
2022-07-29T16:42:03.058Z,85.38
2022-07-29T16:44:31.899Z,82.12
2022-07-29T16:46:59.688Z,84.31
2022-07-29T16:49:28.148Z,83.77
2022-07-29T16:51:55.059Z,82.76
2022-07-29T16:54:21.932Z,82.60
2022-07-29T16:56:49.761Z,83.31
2022-07-29T16:59:16.990Z,83.48
2022-07-29T17:01:44.007Z,82.30
2022-07-29T17:04:11.950Z,81.83
2022-07-29T17:06:40.911Z,84.13
2022-07-29T17:09:12.067Z,84.27
2022-07-29T17:11:52.781Z,84.63
2022-07-29T17:14:36.188Z,83.77
2022-07-29T17:17:13.782Z,84.36
2022-07-29T17:19:45.938Z,84.68
2022-07-29T17:22:19.063Z,83.43
2022-07-29T17:24:48.970Z,84.59
2022-07-29T17:27:16.702Z,83.63
2022-07-29T17:29:43.771Z,83.84
2022-07-29T17:32:16.247Z,83.87
2022-07-29T17:34:43.492Z,84.19
2022-07-29T17:37:11.930Z,84.30
2022-07-29T17:39:41.207Z,83.13
2022-07-29T17:42:13.859Z,83.52
2022-07-29T17:44:41.339Z,83.93
2022-07-29T17:47:15.581Z,84.62
2022-07-29T17:49:45.048Z,84.30
2022-07-29T17:52:11.860Z,82.96
2022-07-29T17:54:38.671Z,81.76
2022-07-29T17:57:05.465Z,82.36
2022-07-29T17:59:32.207Z,82.40
2022-07-29T18:01:59.054Z,82.16
2022-07-29T18:04:25.919Z,81.76
2022-07-29T18:06:52.666Z,81.04
2022-07-29T18:09:19.817Z,82.22
2022-07-29T18:11:47.514Z,82.75
2022-07-29T18:14:14.567Z,82.26
2022-07-29T18:16:41.328Z,81.77
2022-07-29T18:19:08.202Z,81.89
2022-07-29T18:21:51.325Z,81.67
2022-07-29T18:24:25.217Z,81.61
2022-07-29T18:26:52.296Z,81.64
2022-07-29T18:29:19.069Z,81.23
2022-07-29T18:31:45.986Z,81.87
2022-07-29T18:34:12.708Z,82.65
2022-07-29T18:36:39.410Z,82.54
2022-07-29T18:39:06.194Z,82.49
2022-07-29T18:41:33.434Z,82.12
2022-07-29T18:44:00.189Z,81.98
2022-07-29T18:46:26.982Z,81.56
2022-07-29T18:48:53.784Z,82.44
2022-07-29T18:51:22.238Z,81.85
2022-07-29T18:53:49.294Z,81.99
2022-07-29T18:56:16.225Z,82.28
2022-07-29T18:58:43.151Z,81.53
2022-07-29T19:01:12.458Z,81.60
2022-07-29T19:03:43.312Z,82.05
2022-07-29T19:06:10.021Z,82.93
2022-07-29T19:08:36.773Z,82.50
2022-07-29T19:11:03.593Z,82.55
2022-07-29T19:13:30.920Z,84.08
2022-07-29T19:15:57.706Z,84.08
2022-07-29T19:18:24.709Z,84.08
2022-07-29T19:20:51.483Z,82.99
2022-07-29T19:23:18.480Z,83.74
2022-07-29T19:25:53.518Z,83.93
2022-07-29T19:28:22.074Z,83.21
2022-07-29T19:30:49.646Z,83.39
2022-07-29T19:33:18.824Z,83.60
2022-07-29T19:35:47.629Z,82.47
2022-07-29T19:38:16.031Z,83.74
2022-07-29T19:40:43.553Z,84.12
2022-07-29T19:43:50.752Z,82.19
2022-07-29T19:45:57.433Z,83.87
2022-07-29T19:48:24.144Z,83.58
2022-07-29T19:50:51.289Z,82.93
2022-07-29T19:53:18.155Z,82.68
2022-07-29T19:55:44.974Z,82.61
2022-07-29T19:58:12.947Z,81.91
2022-07-29T20:00:41.717Z,82.35
2022-07-29T20:03:10.494Z,82.80
2022-07-29T20:05:37.782Z,83.91
2022-07-29T20:08:06.176Z,83.94
2022-07-29T20:10:34.473Z,83.55
2022-07-29T20:13:01.237Z,84.18
2022-07-29T20:15:28.115Z,84.99
2022-07-29T20:17:57.351Z,85.86
2022-07-29T20:20:25.188Z,84.97
2022-07-29T20:22:53.051Z,85.05
2022-07-29T20:25:19.907Z,84.31
2022-07-29T20:27:46.632Z,84.33
2022-07-29T20:30:14.332Z,85.14
2022-07-29T20:32:41.904Z,84.82
2022-07-29T20:35:09.932Z,85.75
2022-07-29T20:37:52.142Z,86.32
2022-07-29T20:40:23.419Z,86.75
2022-07-29T20:42:50.117Z,86.34
2022-07-29T20:45:16.901Z,85.69
2022-07-29T20:47:43.608Z,86.04
2022-07-29T20:50:10.508Z,85.42
2022-07-29T20:52:40.370Z,85.68
2022-07-29T20:55:09.098Z,85.30
2022-07-29T20:57:39.427Z,84.88
2022-07-29T21:00:07.565Z,85.13
2022-07-29T21:02:34.452Z,85.04
2022-07-29T21:05:01.300Z,84.97
2022-07-29T21:07:28.047Z,84.69
2022-07-29T21:09:54.779Z,84.35
2022-07-29T21:12:22.590Z,84.32
2022-07-29T21:14:49.611Z,84.19
2022-07-29T21:17:21.242Z,83.95
2022-07-29T21:19:53.168Z,83.31
2022-07-29T21:22:22.152Z,82.49
2022-07-29T21:24:49.911Z,82.49
2022-07-29T21:27:38.286Z,82.72
2022-07-29T21:30:08.326Z,82.51
2022-07-29T21:32:36.881Z,82.55
2022-07-29T21:35:18.262Z,81.98
2022-07-29T21:37:51.712Z,81.74
2022-07-29T21:40:18.675Z,82.25
2022-07-29T21:42:45.529Z,82.05
2022-07-29T21:45:13.466Z,81.56
2022-07-29T21:47:40.183Z,81.93
2022-07-29T21:50:07.525Z,82.40
2022-07-29T21:52:34.270Z,82.44
2022-07-29T21:55:04.781Z,82.75
2022-07-29T21:57:32.132Z,82.83
2022-07-29T22:00:02.748Z,82.67
2022-07-29T22:02:31.056Z,82.37
2022-07-29T22:04:58.073Z,82.27
2022-07-29T22:07:24.844Z,82.07
2022-07-29T22:10:11.695Z,82.76
2022-07-29T22:12:38.487Z,82.89
2022-07-29T22:15:05.683Z,82.75
2022-07-29T22:17:32.417Z,82.69
2022-07-29T22:19:59.549Z,82.22
2022-07-29T22:22:27.098Z,82.06
2022-07-29T22:24:53.862Z,82.28
2022-07-29T22:27:22.248Z,81.75
2022-07-29T22:29:49.094Z,81.72
2022-07-29T22:32:15.858Z,81.68
2022-07-29T22:34:42.674Z,81.84
2022-07-29T22:37:09.357Z,81.61
2022-07-29T22:39:36.082Z,81.58
2022-07-29T22:42:02.750Z,81.83
2022-07-29T22:44:29.484Z,82.06
2022-07-29T22:46:56.433Z,82.25
2022-07-29T22:49:23.286Z,81.74
2022-07-29T22:51:49.999Z,81.50
2022-07-29T22:54:16.722Z,81.25
2022-07-29T22:56:43.523Z,81.61
2022-07-29T22:59:10.240Z,81.69
2022-07-29T23:01:38.511Z,81.95
2022-07-29T23:04:06.723Z,81.96
2022-07-29T23:06:34.212Z,82.24
2022-07-29T23:09:01.041Z,81.70
2022-07-29T23:11:27.844Z,81.76
2022-07-29T23:13:54.559Z,82.22
2022-07-29T23:16:26.062Z,82.16
2022-07-29T23:18:53.038Z,81.95
2022-07-29T23:21:20.904Z,82.64
2022-07-29T23:23:49.011Z,82.90
2022-07-29T23:26:17.147Z,82.36
2022-07-29T23:28:46.152Z,82.36
2022-07-29T23:31:13.528Z,82.47
2022-07-29T23:33:41.917Z,82.54
2022-07-29T23:36:08.722Z,82.66
2022-07-29T23:38:41.065Z,82.35
2022-07-29T23:41:09.684Z,82.62
2022-07-29T23:43:37.537Z,82.56
2022-07-29T23:46:04.670Z,82.49
2022-07-29T23:48:34.033Z,82.26
2022-07-29T23:51:01.111Z,82.02
2022-07-29T23:53:28.786Z,81.83
2022-07-29T23:55:56.713Z,81.95
2022-07-29T23:58:23.560Z,82.04
